Aeroporto :
LOGIN :

Iscrizione | Disclaimer

   EN    FR    IT 

 










Sommario :    VFR   VFR Marginale   IFR   IFR Intensivo   IFR Molto Intensivo
Visibilità : 
Base nubi : 
>= 8 km
>= 3000ft
5 / 8 km
1000 / 3000 ft
1500m / 5 km
500 / 1000 ft
800 / 1500m
200 / 500 ft
< 800m
< 200 ft
Simboli :   Temporali  Nebbia  Neve Forte  Precipitazioni Forti  Vento > 20 kt
SIGMETs :   Varie  Temporali  Ghiacco  Turbolenza  Onda orograficha  Ceneri Vulcaniche






- Altitudine del aeroporto : 526 ft
- Codice IATA : LTN


EGGW - London Luton

ULTIMO METAR :
  • 022150Z AUTO 13001KT 9999 OVC029 14/11 Q1015

METARs OBSOLETI :
  • 022120Z AUTO 14002KT 9999 SCT029 14/11 Q1015
  • 022050Z AUTO 16003KT 9999 NCD 15/10 Q1015
  • 022020Z AUTO VRB03KT 9999 NCD 15/10 Q1014
  • 021950Z AUTO VRB03KT 9999 NCD 15/10 Q1014
  • 021920Z AUTO VRB03KT 9999 NCD 16/10 Q1014

TAF TAF EGGW
Valido dal 02 a 18 ore il 03 a 18 ore UTC


021656Z 0218/0318 20004KT 9999 SCT028
TEMPO 0218/0302 6000 RA SHRA
PROB30
TEMPO 0220/0302 2000 +SHRAGS BKN014 BKN025CB
TEMPO 0302/0308 8000 BKN007
PROB30 0303/0308 3000 BR BKN004
PROB30
TEMPO 0310/0318 7000 SHRA
ATIS : +44 1582 395 204



MetMap, La meteo Aeronautica in un colpo d'occhio ! - Copyright ORBIFLY Dicembre 2007 - Disclaimer

ORBIFLY MET'MAP TEAM :

Programmazione e sviluppo : Alexandra Zaïnal
Concezione : Baudouin d'Aumeries
Aiuto per la programmazione : Marc-Olivier Méhu
Supporto tecnico e logistico : Manuel Goepfert
Aiuto per la traduzione : Arnaldo La Scala

Contatto : metmap@orbifly.com




FONTI E CREDITI :

   NOAA